Buckingham, IL (60917)

8:09 AM CST on January 20, 2017 (GMT -0600)
Union Hill | | Change Station

Elev 623 ft 41.11 °N, 88.15 °W | Updated 4 minutes ago

Fog
Fog
37.2 °F
Feels Like 37 °F
N
1.0
Wind Variable Wind from ESE
Gusts 6.0 mph

Today
High -- | Low -- °F
--% Chance of Precip.
Yesterday
High -- | Low -- °F
Precip. -- in
Pressure 29.62 in
Visibility 2.5 miles
Clouds Overcast 400 ft
Windchill 37 °F
Dew Point 37 °F
Humidity 99%
Rainfall 0.00 in
Snow Depth Not available.
7:12 AM 4:55 PM
Last Quarter, 44% visible
METAR KIKK 201355Z AUTO 00000KT 2 1/2SM BR OVC004 04/03 A2962 RMK AO2 T00350031
Pressure 29.62 in
Visibility 2.5 miles
Clouds Overcast 400 ft
Windchill 37 °F
Dew Point 37 °F
Humidity 99%
Rainfall 0.00 in
Snow Depth Not available.
7:12 AM 4:55 PM
Last Quarter, 44% visible
METAR KIKK 201355Z AUTO 00000KT 2 1/2SM BR OVC004 04/03 A2962 RMK AO2 T00350031

Get Your Daily Forecast Email!

Thanks for signing up!

Be on the lookout for a verification email in your inbox.

You'll start receiving the daily forecast at 8 AM.

×

10-Day Weather Forecast

Almanac

Astronomy

Jan. 20, 2017 Rise Set
Actual Time
Civil Twilight
Nautical Twilight
Astronomical Twilight
Moon
Length of Visible Light
Length of Day
Tomorrow will be .
, % of the Moon is Illuminated

Today's Extremes

State Highs State Lows

Community

WunderPhotos

Upload Photos

1,962,540 photos uploaded!

WunderBlog® & News

Nearby

Air Quality

  Air Quality AQ Index Pollutant
Not available.

Snow Depth

Station Depth Elevation

Earthquake Activity

City Distance Mag. Time & Date
Minimum magnitude displayed is 2.5.

Coastal Water Temperatures

Place Temperature

Stations

Nearby Weather Stations

Station Location Temp. Windchill Dew Point Humidity Wind Precip. Elev Updated Type
                   

Watches & Warnings

There are currently no watches in effect.